createdAt,value
2019-03-26T00:00:55.405Z,13.75
2019-03-26T00:03:26.473Z,10.00
2019-03-26T00:05:57.491Z,13.35
2019-03-26T00:08:28.382Z,11.97
2019-03-26T00:13:31.868Z,12.50
2019-03-26T00:16:01.957Z,12.68
2019-03-26T00:18:33.286Z,15.30
2019-03-26T00:21:11.763Z,12.25
2019-03-26T00:23:43.785Z,12.63
2019-03-26T00:26:17.924Z,12.58
2019-03-26T00:28:55.111Z,11.18
2019-03-26T00:31:29.958Z,13.20
2019-03-26T00:34:00.887Z,11.63
2019-03-26T00:36:32.040Z,11.88
2019-03-26T00:39:02.939Z,14.18
2019-03-26T00:41:33.780Z,13.03
2019-03-26T00:44:05.125Z,11.55
2019-03-26T00:46:35.318Z,13.43
2019-03-26T00:49:12.676Z,10.75
2019-03-26T00:51:51.574Z,12.93
2019-03-26T00:59:29.101Z,12.13
2019-03-26T01:04:55.690Z,12.13
2019-03-26T01:09:57.451Z,13.75
2019-03-26T01:12:31.299Z,11.83
2019-03-26T01:15:09.632Z,11.83
2019-03-26T01:17:36.602Z,11.45
2019-03-26T01:20:07.984Z,13.25
2019-03-26T01:22:40.663Z,10.58
2019-03-26T01:25:11.547Z,13.65
2019-03-26T01:27:41.366Z,12.37
2019-03-26T01:30:12.460Z,12.55
2019-03-26T01:32:43.736Z,12.95
2019-03-26T01:37:52.916Z,12.50
2019-03-26T01:45:26.125Z,11.28
2019-03-26T01:50:30.057Z,12.33
2019-03-26T01:55:33.489Z,9.53
2019-03-26T02:00:39.293Z,10.57
2019-03-26T02:03:15.107Z,9.88
2019-03-26T02:05:46.899Z,10.03
2019-03-26T02:15:53.767Z,12.10
2019-03-26T02:18:24.771Z,10.72
2019-03-26T02:23:51.603Z,10.10
2019-03-26T02:26:32.639Z,11.48
2019-03-26T02:29:22.809Z,9.45
2019-03-26T02:34:49.566Z,9.60
2019-03-26T02:37:20.686Z,8.90
2019-03-26T02:39:55.241Z,10.13
2019-03-26T02:47:51.191Z,7.62
2019-03-26T02:50:22.036Z,11.70
2019-03-26T02:52:56.084Z,10.93
2019-03-26T02:55:30.048Z,9.88
2019-03-26T02:58:00.244Z,9.35
2019-03-26T03:00:31.183Z,11.35
2019-03-26T03:03:02.204Z,10.18
2019-03-26T03:05:35.747Z,10.58
2019-03-26T03:08:05.797Z,10.68
2019-03-26T03:15:59.279Z,8.35
2019-03-26T03:18:30.344Z,10.28
2019-03-26T03:23:31.576Z,9.48
2019-03-26T03:28:31.438Z,10.25
2019-03-26T03:31:07.169Z,8.93
2019-03-26T03:36:03.502Z,9.95
2019-03-26T03:46:10.438Z,9.00
2019-03-26T03:51:14.338Z,9.83
2019-03-26T03:56:22.197Z,9.30
2019-03-26T03:58:55.201Z,10.80
2019-03-26T04:01:26.044Z,8.55
2019-03-26T04:06:54.338Z,9.90
2019-03-26T04:12:22.960Z,8.15
2019-03-26T04:17:26.719Z,8.25
2019-03-26T04:19:57.978Z,7.45
2019-03-26T04:22:28.577Z,7.80
2019-03-26T04:25:07.543Z,9.10
2019-03-26T04:27:39.186Z,8.75
2019-03-26T04:30:10.157Z,10.38
2019-03-26T04:32:53.306Z,8.90
2019-03-26T04:35:23.018Z,7.97
2019-03-26T04:37:54.039Z,8.20
2019-03-26T04:43:19.164Z,7.58
2019-03-26T04:45:51.354Z,8.45
2019-03-26T04:48:29.161Z,9.60
2019-03-26T04:51:03.067Z,9.28
2019-03-26T04:53:39.834Z,9.20
2019-03-26T05:06:37.195Z,9.95
2019-03-26T05:11:33.547Z,7.77
2019-03-26T05:16:56.157Z,7.62
2019-03-26T05:22:03.053Z,7.10
2019-03-26T05:30:56.604Z,9.15
2019-03-26T05:33:28.858Z,6.72
2019-03-26T05:35:59.997Z,8.98
2019-03-26T05:38:39.327Z,10.08
2019-03-26T05:41:15.210Z,9.23
2019-03-26T05:49:04.059Z,9.13
2019-03-26T05:51:38.657Z,9.40
2019-03-26T05:54:16.401Z,7.67
2019-03-26T05:56:58.536Z,8.98
2019-03-26T05:59:46.202Z,8.38
2019-03-26T06:08:12.430Z,10.10
2019-03-26T06:11:01.430Z,11.30
2019-03-26T06:13:32.035Z,8.50
2019-03-26T06:16:07.235Z,8.23
2019-03-26T06:18:38.281Z,7.33
2019-03-26T06:21:13.819Z,8.13
2019-03-26T06:31:46.375Z,8.63
2019-03-26T06:34:18.394Z,7.87
2019-03-26T06:36:49.382Z,10.03
2019-03-26T06:39:20.432Z,9.23
2019-03-26T06:41:51.580Z,11.50
2019-03-26T06:44:22.509Z,10.80
2019-03-26T06:46:53.597Z,10.15
2019-03-26T06:49:24.574Z,23.65
2019-03-26T06:51:55.476Z,9.88
2019-03-26T06:54:26.583Z,10.05
2019-03-26T06:57:06.478Z,10.60
2019-03-26T07:02:50.455Z,12.80
2019-03-26T07:05:25.458Z,11.25
2019-03-26T07:08:00.357Z,13.60
2019-03-26T07:10:31.529Z,16.42
2019-03-26T07:13:03.499Z,14.90
2019-03-26T07:18:42.482Z,9.13
2019-03-26T07:21:12.809Z,13.33
2019-03-26T07:23:46.371Z,13.10
2019-03-26T07:29:20.104Z,12.30
2019-03-26T07:34:54.244Z,20.68
2019-03-26T07:37:28.867Z,29.37
2019-03-26T07:45:56.051Z,18.55
2019-03-26T07:51:10.889Z,11.88
2019-03-26T07:56:43.989Z,27.25
2019-03-26T08:01:58.831Z,17.70
2019-03-26T08:04:32.705Z,19.47
2019-03-26T08:07:13.004Z,23.10
2019-03-26T08:09:49.743Z,14.15
2019-03-26T08:12:26.169Z,12.65
2019-03-26T08:15:05.581Z,18.80
2019-03-26T08:17:32.816Z,19.82
2019-03-26T08:20:23.341Z,16.48
2019-03-26T08:22:55.147Z,15.32
2019-03-26T08:25:33.591Z,13.30
2019-03-26T08:28:16.740Z,15.32
2019-03-26T08:30:50.218Z,20.02
2019-03-26T08:33:23.443Z,14.80
2019-03-26T08:35:54.722Z,18.82
2019-03-26T08:38:26.010Z,22.82
2019-03-26T08:41:06.943Z,29.65
2019-03-26T08:43:41.371Z,20.53
2019-03-26T08:46:26.387Z,25.75
2019-03-26T08:49:04.019Z,16.37
2019-03-26T08:51:42.857Z,16.48
2019-03-26T08:56:58.647Z,24.67
2019-03-26T08:59:33.057Z,23.07
2019-03-26T09:08:03.183Z,18.80
2019-03-26T09:13:20.517Z,17.45
2019-03-26T09:15:57.920Z,23.87
2019-03-26T09:18:29.124Z,27.42
2019-03-26T09:26:59.996Z,40.93
2019-03-26T09:32:19.742Z,29.05
2019-03-26T09:38:07.655Z,18.53
2019-03-26T09:46:32.835Z,28.55
2019-03-26T09:48:50.940Z,27.07
2019-03-26T09:54:09.719Z,20.15
2019-03-26T09:59:55.141Z,22.87
2019-03-26T10:05:34.883Z,24.98
2019-03-26T10:11:18.228Z,27.15
2019-03-26T10:13:49.426Z,23.77
2019-03-26T10:16:20.516Z,17.17
2019-03-26T10:19:17.263Z,22.55
2019-03-26T10:24:18.508Z,28.12
2019-03-26T10:33:10.663Z,15.40
2019-03-26T10:35:26.073Z,19.23
2019-03-26T10:41:10.248Z,23.20
2019-03-26T10:43:41.696Z,23.70
2019-03-26T10:46:14.195Z,15.98
2019-03-26T10:49:18.179Z,18.92
2019-03-26T10:54:35.941Z,22.73
2019-03-26T10:57:10.183Z,153.40
2019-03-26T10:59:47.674Z,24.12
2019-03-26T11:05:15.443Z,97.88
2019-03-26T11:07:50.069Z,114.50
2019-03-26T11:11:53.960Z,66.10
2019-03-26T11:14:31.819Z,68.75
2019-03-26T11:17:10.112Z,72.25
2019-03-26T11:19:49.409Z,68.62
2019-03-26T11:22:25.565Z,52.10
2019-03-26T11:24:59.745Z,34.98
2019-03-26T11:27:42.555Z,50.63
2019-03-26T11:30:13.642Z,40.23
2019-03-26T11:32:45.041Z,31.23
2019-03-26T11:35:15.982Z,35.90
2019-03-26T11:37:47.629Z,34.80
2019-03-26T11:40:19.049Z,30.10
2019-03-26T11:42:50.262Z,179.07
2019-03-26T11:45:25.349Z,86.37
2019-03-26T11:47:57.088Z,97.85
2019-03-26T11:50:30.317Z,70.62
2019-03-26T11:53:03.447Z,53.38
2019-03-26T11:55:35.088Z,68.87
2019-03-26T11:58:11.141Z,49.93
2019-03-26T12:00:42.528Z,58.48
2019-03-26T12:03:14.721Z,41.30
2019-03-26T12:05:46.288Z,33.00
2019-03-26T12:08:17.298Z,35.17
2019-03-26T12:10:48.442Z,32.03
2019-03-26T12:13:19.322Z,50.98
2019-03-26T12:15:52.765Z,31.30
2019-03-26T12:18:23.825Z,40.08
2019-03-26T12:20:54.872Z,32.63
2019-03-26T12:23:31.063Z,31.50
2019-03-26T12:26:04.998Z,28.80
2019-03-26T12:28:36.620Z,27.60
2019-03-26T12:31:08.722Z,22.05
2019-03-26T12:33:39.862Z,27.30
2019-03-26T12:36:12.714Z,21.93
2019-03-26T12:38:43.986Z,17.62
2019-03-26T12:41:14.958Z,18.92
2019-03-26T12:43:45.836Z,26.35
2019-03-26T12:46:18.220Z,21.77
2019-03-26T12:48:49.196Z,25.65
2019-03-26T12:51:22.373Z,25.68
2019-03-26T12:53:53.347Z,21.02
2019-03-26T12:56:24.899Z,12.25
2019-03-26T12:58:55.815Z,16.02
2019-03-26T13:01:27.051Z,14.00
2019-03-26T13:04:12.052Z,13.72
2019-03-26T13:06:32.901Z,29.90
2019-03-26T13:09:04.434Z,81.00
2019-03-26T13:11:36.070Z,58.23
2019-03-26T13:14:07.297Z,54.85
2019-03-26T13:16:50.511Z,37.03
2019-03-26T13:19:22.690Z,43.65
2019-03-26T13:21:56.939Z,36.42
2019-03-26T13:24:48.251Z,31.25
2019-03-26T13:27:19.275Z,29.27
2019-03-26T13:29:50.776Z,28.42
2019-03-26T13:32:21.667Z,21.48
2019-03-26T13:34:52.552Z,27.77
2019-03-26T13:37:23.451Z,22.48
2019-03-26T13:39:55.935Z,23.98
2019-03-26T13:42:27.066Z,22.37
2019-03-26T13:44:58.024Z,19.30
2019-03-26T13:47:29.044Z,18.57
2019-03-26T13:50:00.427Z,22.42
2019-03-26T13:52:31.560Z,23.05
2019-03-26T13:55:03.643Z,19.12
2019-03-26T13:57:35.022Z,19.37
2019-03-26T14:00:08.803Z,15.03
2019-03-26T14:02:42.267Z,21.23
2019-03-26T14:05:27.353Z,19.77
2019-03-26T14:08:04.681Z,125.45
2019-03-26T14:10:41.285Z,96.45
2019-03-26T14:13:21.258Z,70.40
2019-03-26T14:15:58.728Z,61.58
2019-03-26T14:18:35.827Z,55.43
2019-03-26T14:21:07.923Z,53.78
2019-03-26T14:23:41.777Z,47.25
2019-03-26T14:26:13.386Z,37.05
2019-03-26T14:28:44.470Z,43.40
2019-03-26T14:31:21.529Z,29.45
2019-03-26T14:33:51.103Z,38.65
2019-03-26T14:36:24.226Z,36.08
2019-03-26T14:39:04.325Z,41.92
2019-03-26T14:41:39.870Z,27.90
2019-03-26T14:44:10.885Z,25.65
2019-03-26T14:46:43.638Z,19.90
2019-03-26T14:55:17.114Z,30.17
2019-03-26T14:57:48.397Z,27.22
2019-03-26T15:00:23.359Z,30.35
2019-03-26T15:02:57.778Z,46.63
2019-03-26T15:05:33.949Z,27.02
2019-03-26T15:08:08.781Z,31.37
2019-03-26T15:10:44.541Z,31.97
2019-03-26T15:13:15.758Z,39.80
2019-03-26T15:15:46.887Z,36.73
2019-03-26T15:18:22.962Z,25.35
2019-03-26T15:20:54.250Z,29.00
2019-03-26T15:23:25.906Z,34.40
2019-03-26T15:25:56.927Z,24.77
2019-03-26T15:28:29.427Z,27.32
2019-03-26T15:31:00.454Z,29.52
2019-03-26T15:33:33.818Z,31.20
2019-03-26T15:36:03.871Z,29.18
2019-03-26T15:38:34.828Z,28.07
2019-03-26T15:41:05.842Z,22.77
2019-03-26T15:43:42.230Z,24.95
2019-03-26T15:46:13.247Z,24.27
2019-03-26T15:48:44.526Z,23.95
2019-03-26T15:51:18.892Z,25.90
2019-03-26T15:53:50.037Z,25.55
2019-03-26T15:56:23.281Z,24.85
2019-03-26T15:58:53.929Z,17.85
2019-03-26T16:01:24.921Z,26.25
2019-03-26T16:03:57.213Z,26.02
2019-03-26T16:06:28.384Z,29.32
2019-03-26T16:08:59.556Z,17.87
2019-03-26T16:11:36.191Z,24.23
2019-03-26T16:14:03.259Z,20.97
2019-03-26T16:16:34.246Z,21.93
2019-03-26T16:19:05.143Z,16.50
2019-03-26T16:21:36.083Z,18.87
2019-03-26T16:24:07.171Z,18.75
2019-03-26T16:26:39.079Z,23.62
2019-03-26T16:29:12.466Z,19.48
2019-03-26T16:31:43.491Z,18.15
2019-03-26T16:34:14.355Z,21.65
2019-03-26T16:36:58.502Z,20.08
2019-03-26T16:39:17.975Z,18.62
2019-03-26T16:41:49.588Z,24.55
2019-03-26T16:44:20.701Z,13.83
2019-03-26T16:46:51.575Z,20.60
2019-03-26T16:49:22.448Z,18.45
2019-03-26T16:51:53.410Z,13.38
2019-03-26T16:54:24.350Z,12.90
2019-03-26T16:56:55.278Z,14.95
2019-03-26T16:59:26.250Z,19.87
2019-03-26T17:01:57.284Z,13.72
2019-03-26T17:04:28.191Z,11.12
2019-03-26T17:06:59.003Z,13.22
2019-03-26T17:09:29.951Z,11.28
2019-03-26T17:12:03.410Z,12.50
2019-03-26T17:14:33.829Z,12.45
2019-03-26T17:17:04.814Z,16.35
2019-03-26T17:19:35.939Z,14.28
2019-03-26T17:22:09.318Z,10.78
2019-03-26T17:24:40.229Z,11.35
2019-03-26T17:27:11.165Z,15.03
2019-03-26T17:29:42.163Z,19.30
2019-03-26T17:32:13.381Z,21.17
2019-03-26T17:34:44.249Z,14.40
2019-03-26T17:37:15.205Z,18.55
2019-03-26T17:39:46.291Z,15.45
2019-03-26T17:42:17.796Z,7.90
2019-03-26T17:44:48.836Z,14.43
2019-03-26T17:47:19.821Z,16.23
2019-03-26T17:49:50.722Z,15.60
2019-03-26T17:52:21.597Z,17.00
2019-03-26T17:54:52.577Z,10.58
2019-03-26T17:57:23.621Z,22.58
2019-03-26T17:59:54.626Z,9.53
2019-03-26T18:02:25.519Z,10.82
2019-03-26T18:04:56.538Z,8.30
2019-03-26T18:07:27.577Z,10.28
2019-03-26T18:09:58.544Z,12.23
2019-03-26T18:12:31.035Z,10.55
2019-03-26T18:15:02.168Z,11.78
2019-03-26T18:17:33.075Z,5.85
2019-03-26T18:20:04.011Z,10.53
2019-03-26T18:22:35.323Z,7.28
2019-03-26T18:25:06.306Z,15.08
2019-03-26T18:27:37.229Z,8.63
2019-03-26T18:30:09.183Z,9.55
2019-03-26T18:32:40.244Z,10.08
2019-03-26T18:35:11.049Z,8.15
2019-03-26T18:37:41.868Z,7.10
2019-03-26T18:40:12.749Z,7.50
2019-03-26T18:42:44.620Z,8.65
2019-03-26T18:45:15.647Z,8.08
2019-03-26T18:47:46.413Z,7.65
2019-03-26T18:50:17.586Z,12.73
2019-03-26T18:52:48.524Z,5.80
2019-03-26T18:55:19.437Z,7.75
2019-03-26T18:57:50.381Z,6.95
2019-03-26T19:00:33.580Z,5.28
2019-03-26T19:03:04.601Z,6.85
2019-03-26T19:05:36.535Z,7.83
2019-03-26T19:08:07.606Z,9.08
2019-03-26T19:10:39.490Z,5.72
2019-03-26T19:13:19.266Z,6.28
2019-03-26T19:15:42.926Z,7.17
2019-03-26T19:18:13.834Z,8.08
2019-03-26T19:20:44.758Z,8.33
2019-03-26T19:23:15.742Z,9.70
2019-03-26T19:25:46.719Z,11.38
2019-03-26T19:28:17.458Z,7.35
2019-03-26T19:30:48.344Z,8.45
2019-03-26T19:33:19.293Z,8.83
2019-03-26T19:35:50.119Z,10.63
2019-03-26T19:38:20.952Z,5.40
2019-03-26T19:40:51.883Z,7.67
2019-03-26T19:43:22.893Z,8.08
2019-03-26T19:45:53.902Z,6.22
2019-03-26T19:48:24.876Z,5.10
2019-03-26T19:50:55.811Z,10.28
2019-03-26T19:53:26.747Z,5.53
2019-03-26T19:55:57.658Z,8.68
2019-03-26T19:58:28.563Z,9.93
2019-03-26T20:00:59.525Z,7.72
2019-03-26T20:03:30.489Z,6.45
2019-03-26T20:06:12.924Z,5.53
2019-03-26T20:08:34.251Z,4.62
2019-03-26T20:11:05.235Z,8.08
2019-03-26T20:13:36.182Z,8.13
2019-03-26T20:16:07.055Z,7.62
2019-03-26T20:18:38.090Z,4.83
2019-03-26T20:21:09.085Z,6.97
2019-03-26T20:23:40.066Z,4.97
2019-03-26T20:26:10.931Z,9.05
2019-03-26T20:28:43.453Z,3.27
2019-03-26T20:31:14.332Z,4.47
2019-03-26T20:33:45.354Z,8.80
2019-03-26T20:36:16.155Z,6.10
2019-03-26T20:38:48.109Z,7.35
2019-03-26T20:41:20.653Z,9.50
2019-03-26T20:43:51.663Z,5.37
2019-03-26T20:46:22.535Z,4.17
2019-03-26T20:48:53.482Z,6.55
2019-03-26T20:51:24.496Z,5.90
2019-03-26T20:53:55.620Z,4.53
2019-03-26T20:56:26.687Z,7.05
2019-03-26T20:58:57.643Z,5.85
2019-03-26T21:01:28.642Z,6.12
2019-03-26T21:03:59.636Z,11.45
2019-03-26T21:06:30.654Z,5.90
2019-03-26T21:09:01.659Z,5.60
2019-03-26T21:11:34.238Z,6.45
2019-03-26T21:14:05.230Z,7.40
2019-03-26T21:16:36.098Z,5.20
2019-03-26T21:19:07.961Z,5.97
2019-03-26T21:21:38.900Z,5.00
2019-03-26T21:24:09.838Z,4.33
2019-03-26T21:26:40.796Z,6.58
2019-03-26T21:29:11.766Z,6.00
2019-03-26T21:31:42.733Z,6.75
2019-03-26T21:34:13.612Z,5.45
2019-03-26T21:36:44.575Z,7.62
2019-03-26T21:39:15.444Z,7.15
2019-03-26T21:41:46.542Z,5.35
2019-03-26T21:44:17.473Z,6.12
2019-03-26T21:46:48.285Z,6.20
2019-03-26T21:49:19.355Z,7.17
2019-03-26T21:51:50.372Z,6.17
2019-03-26T21:54:21.210Z,5.97
2019-03-26T21:56:52.100Z,4.75
2019-03-26T21:59:23.048Z,5.80
2019-03-26T22:01:53.986Z,4.92
2019-03-26T22:04:24.987Z,6.75
2019-03-26T22:06:55.934Z,7.60
2019-03-26T22:09:26.881Z,4.53
2019-03-26T22:11:57.758Z,5.37
2019-03-26T22:14:29.682Z,4.75
2019-03-26T22:17:00.558Z,5.47
2019-03-26T22:19:31.511Z,5.30
2019-03-26T22:22:02.451Z,5.92
2019-03-26T22:24:33.554Z,4.40
2019-03-26T22:27:04.618Z,6.45
2019-03-26T22:29:35.672Z,4.95
2019-03-26T22:32:06.552Z,4.42
2019-03-26T22:34:37.606Z,6.10
2019-03-26T22:37:08.616Z,6.55
2019-03-26T22:39:39.555Z,4.42
2019-03-26T22:42:10.554Z,5.40
2019-03-26T22:44:41.632Z,6.20
2019-03-26T22:47:12.677Z,5.17
2019-03-26T22:49:43.668Z,5.58
2019-03-26T22:52:14.739Z,6.90
2019-03-26T22:54:45.918Z,5.28
2019-03-26T22:57:16.776Z,5.70
2019-03-26T22:59:47.717Z,4.78
2019-03-26T23:02:18.565Z,5.45
2019-03-26T23:04:49.446Z,6.35
2019-03-26T23:07:20.322Z,3.80
2019-03-26T23:09:51.312Z,5.35
2019-03-26T23:12:22.246Z,3.90
2019-03-26T23:14:53.255Z,5.00
2019-03-26T23:17:24.221Z,4.83
2019-03-26T23:19:55.210Z,5.15
2019-03-26T23:22:26.145Z,5.28
2019-03-26T23:24:57.058Z,6.08
2019-03-26T23:27:27.995Z,4.65
2019-03-26T23:29:59.068Z,5.03
2019-03-26T23:32:30.050Z,6.78
2019-03-26T23:35:01.011Z,5.97
2019-03-26T23:37:32.012Z,4.62
2019-03-26T23:40:02.900Z,5.78
2019-03-26T23:42:33.868Z,5.08
2019-03-26T23:45:05.320Z,6.03
2019-03-26T23:47:36.403Z,4.58
2019-03-26T23:50:08.091Z,4.28
2019-03-26T23:52:39.167Z,3.70
2019-03-26T23:55:10.121Z,4.95
2019-03-26T23:57:41.101Z,5.35
